Axton, VA

7:20 PM EDT on July 02, 2015 (GMT -0400)
KVAAXTON2 | | Change Station
CLOSE
Current Station
Personal Weather Station
Location: Axton, VA
Elevation: 930 ft
Nearby Weather Stations

Elev 930 ft 36.66 °N, 79.68 °W | Updated 5 seconds ago

Overcast
Overcast
74.1 °F
Feels Like 77 °F
N
0.0
Wind Variable Wind from North
Gusts 0.0 mph

Today
High -- | Low -- °F
--% Chance of Precip.
Yesterday
High -- | Low -- °F
Precip. -- in
6:04 AM 8:41 PM
Full, 99% visible
Pressure 29.91 in
Visibility 10.0 miles
Clouds Scattered Clouds 1000 ft
Mostly Cloudy 9000 ft
Overcast 12000 ft
Heat Index 77 °F
Dew Point 56 °F
Humidity 53%
Rainfall 0.12 in
Snow Depth Not available.
UV 0 out of 12
Pollen .50 out of 12
Air Quality Not available.
Flu Activity Not available.
METAR KSIF 022315Z AUTO 00000KT 10SM SCT010 BKN090 OVC120 23/21 A2991 RMK AO2 T02310209

More Conditions Fewer Conditions

Pressure 29.91 in
Visibility 10.0 miles
Clouds Scattered Clouds 1000 ft
Mostly Cloudy 9000 ft
Overcast 12000 ft
Heat Index 77 °F
Dew Point 56 °F
Humidity 53%
Rainfall 0.12 in
Snow Depth Not available.
UV 0 out of 12
Pollen .50 out of 12
Air Quality Not available.
Flu Activity Not available.
METAR KSIF 022315Z AUTO 00000KT 10SM SCT010 BKN090 OVC120 23/21 A2991 RMK AO2 T02310209

More Conditions Fewer Conditions

10-Day Weather Forecast

×

Almanac

Astronomy

Jul. 02, 2015 Rise Set
Actual Time
Civil Twilight
Nautical Twilight
Astronomical Twilight
Moon
Length of Visible Light
Length of Day
Tomorrow will be .
, % of the Moon is Illuminated

Today's Extremes

State Highs State Lows

Community

WunderPhotos

Upload Photos

1,834,569 photos uploaded!

WunderBlogs® & News

Nearby

Air Quality

  Air Quality AQ Index Pollutant
Not available.

Snow Depth

Station Depth Elevation

Earthquake Activity

City Distance Mag. Time & Date
Minimum magnitude displayed is 2.5.

Coastal Water Temperatures

Place Temperature

Stations

Nearby Weather Stations

Station Location Temp. Windchill Dew Point Humidity Wind Precip. Elev Updated Type